sensor_id;sensor_type;location;lat;lon;timestamp;P1;durP1;ratioP1;P2;durP2;ratioP2
27746;SDS011;15138;51.012;4.692;2023-06-05T00:00:42;6.80;;;2.33;;
27746;SDS011;15138;51.012;4.692;2023-06-05T00:03:11;5.00;;;1.83;;
27746;SDS011;15138;51.012;4.692;2023-06-05T00:05:39;5.18;;;2.10;;
27746;SDS011;15138;51.012;4.692;2023-06-05T00:08:08;3.38;;;2.10;;
27746;SDS011;15138;51.012;4.692;2023-06-05T00:10:37;6.28;;;2.65;;
27746;SDS011;15138;51.012;4.692;2023-06-05T00:13:05;4.13;;;1.98;;
27746;SDS011;15138;51.012;4.692;2023-06-05T00:15:35;6.20;;;1.98;;
27746;SDS011;15138;51.012;4.692;2023-06-05T00:18:03;5.03;;;2.03;;
27746;SDS011;15138;51.012;4.692;2023-06-05T00:20:32;4.90;;;2.47;;
27746;SDS011;15138;51.012;4.692;2023-06-05T00:23:00;7.70;;;2.00;;
27746;SDS011;15138;51.012;4.692;2023-06-05T00:25:28;7.05;;;2.30;;
27746;SDS011;15138;51.012;4.692;2023-06-05T00:27:57;6.63;;;2.28;;
27746;SDS011;15138;51.012;4.692;2023-06-05T00:30:25;6.43;;;2.15;;
27746;SDS011;15138;51.012;4.692;2023-06-05T00:32:55;6.28;;;2.28;;
27746;SDS011;15138;51.012;4.692;2023-06-05T00:35:23;7.32;;;2.28;;
27746;SDS011;15138;51.012;4.692;2023-06-05T00:37:52;6.82;;;2.30;;
27746;SDS011;15138;51.012;4.692;2023-06-05T00:40:20;5.18;;;2.25;;
27746;SDS011;15138;51.012;4.692;2023-06-05T00:42:49;5.32;;;2.60;;
27746;SDS011;15138;51.012;4.692;2023-06-05T00:45:17;7.35;;;2.20;;
27746;SDS011;15138;51.012;4.692;2023-06-05T00:47:45;7.53;;;2.60;;
27746;SDS011;15138;51.012;4.692;2023-06-05T00:50:16;6.07;;;2.20;;
27746;SDS011;15138;51.012;4.692;2023-06-05T00:52:48;12.15;;;2.50;;
27746;SDS011;15138;51.012;4.692;2023-06-05T00:55:17;6.28;;;2.40;;
27746;SDS011;15138;51.012;4.692;2023-06-05T00:57:46;7.90;;;2.67;;
27746;SDS011;15138;51.012;4.692;2023-06-05T01:00:15;4.20;;;2.03;;
27746;SDS011;15138;51.012;4.692;2023-06-05T01:02:45;6.07;;;2.35;;
27746;SDS011;15138;51.012;4.692;2023-06-05T01:05:15;5.68;;;2.33;;
27746;SDS011;15138;51.012;4.692;2023-06-05T01:07:44;4.93;;;2.30;;
27746;SDS011;15138;51.012;4.692;2023-06-05T01:10:14;4.72;;;2.20;;
27746;SDS011;15138;51.012;4.692;2023-06-05T01:12:44;5.75;;;2.88;;
27746;SDS011;15138;51.012;4.692;2023-06-05T01:15:32;4.22;;;2.20;;
27746;SDS011;15138;51.012;4.692;2023-06-05T01:18:03;5.13;;;2.15;;
27746;SDS011;15138;51.012;4.692;2023-06-05T01:20:33;5.18;;;2.38;;
27746;SDS011;15138;51.012;4.692;2023-06-05T01:23:03;4.60;;;2.10;;
27746;SDS011;15138;51.012;4.692;2023-06-05T01:25:32;3.80;;;1.98;;
27746;SDS011;15138;51.012;4.692;2023-06-05T01:28:04;5.75;;;2.70;;
27746;SDS011;15138;51.012;4.692;2023-06-05T01:30:40;9.48;;;2.80;;
27746;SDS011;15138;51.012;4.692;2023-06-05T01:33:21;6.38;;;2.28;;
27746;SDS011;15138;51.012;4.692;2023-06-05T01:35:54;3.67;;;1.75;;
27746;SDS011;15138;51.012;4.692;2023-06-05T01:38:33;4.70;;;2.20;;
27746;SDS011;15138;51.012;4.692;2023-06-05T01:41:02;5.00;;;1.88;;
27746;SDS011;15138;51.012;4.692;2023-06-05T01:43:31;4.13;;;1.95;;
27746;SDS011;15138;51.012;4.692;2023-06-05T01:46:01;5.88;;;2.40;;
27746;SDS011;15138;51.012;4.692;2023-06-05T01:48:29;5.88;;;2.30;;
27746;SDS011;15138;51.012;4.692;2023-06-05T01:50:59;7.50;;;2.45;;
27746;SDS011;15138;51.012;4.692;2023-06-05T01:53:28;4.90;;;1.90;;
27746;SDS011;15138;51.012;4.692;2023-06-05T01:55:58;2.75;;;2.05;;
27746;SDS011;15138;51.012;4.692;2023-06-05T01:58:27;6.97;;;2.80;;
27746;SDS011;15138;51.012;4.692;2023-06-05T02:00:55;6.00;;;2.17;;
27746;SDS011;15138;51.012;4.692;2023-06-05T02:03:24;6.60;;;2.28;;
27746;SDS011;15138;51.012;4.692;2023-06-05T02:05:53;8.00;;;2.25;;
27746;SDS011;15138;51.012;4.692;2023-06-05T02:08:22;8.15;;;2.70;;
27746;SDS011;15138;51.012;4.692;2023-06-05T02:10:51;6.00;;;2.20;;
27746;SDS011;15138;51.012;4.692;2023-06-05T02:13:22;6.07;;;2.25;;
27746;SDS011;15138;51.012;4.692;2023-06-05T02:15:51;5.53;;;2.63;;
27746;SDS011;15138;51.012;4.692;2023-06-05T02:18:23;5.05;;;2.53;;
27746;SDS011;15138;51.012;4.692;2023-06-05T02:20:53;4.68;;;2.10;;
27746;SDS011;15138;51.012;4.692;2023-06-05T02:23:22;4.88;;;2.35;;
27746;SDS011;15138;51.012;4.692;2023-06-05T02:25:51;9.02;;;2.97;;
27746;SDS011;15138;51.012;4.692;2023-06-05T02:28:19;7.30;;;2.45;;
27746;SDS011;15138;51.012;4.692;2023-06-05T02:30:49;3.75;;;2.20;;
27746;SDS011;15138;51.012;4.692;2023-06-05T02:33:17;6.38;;;2.47;;
27746;SDS011;15138;51.012;4.692;2023-06-05T02:35:46;7.72;;;2.55;;
27746;SDS011;15138;51.012;4.692;2023-06-05T02:38:14;8.52;;;2.72;;
27746;SDS011;15138;51.012;4.692;2023-06-05T02:40:43;6.63;;;2.40;;
27746;SDS011;15138;51.012;4.692;2023-06-05T02:43:11;7.13;;;2.70;;
27746;SDS011;15138;51.012;4.692;2023-06-05T02:45:42;7.32;;;2.17;;
27746;SDS011;15138;51.012;4.692;2023-06-05T02:48:11;4.93;;;2.47;;
27746;SDS011;15138;51.012;4.692;2023-06-05T02:50:39;5.53;;;2.63;;
27746;SDS011;15138;51.012;4.692;2023-06-05T02:53:07;5.50;;;2.30;;
27746;SDS011;15138;51.012;4.692;2023-06-05T02:55:36;4.72;;;2.40;;
27746;SDS011;15138;51.012;4.692;2023-06-05T02:58:06;7.38;;;2.63;;
27746;SDS011;15138;51.012;4.692;2023-06-05T03:00:35;5.95;;;2.55;;
27746;SDS011;15138;51.012;4.692;2023-06-05T03:03:05;7.68;;;3.10;;
27746;SDS011;15138;51.012;4.692;2023-06-05T03:05:33;7.38;;;2.70;;
27746;SDS011;15138;51.012;4.692;2023-06-05T03:08:02;6.70;;;2.85;;
27746;SDS011;15138;51.012;4.692;2023-06-05T03:10:33;5.60;;;2.47;;
27746;SDS011;15138;51.012;4.692;2023-06-05T03:13:03;6.40;;;2.40;;
27746;SDS011;15138;51.012;4.692;2023-06-05T03:15:32;5.53;;;2.70;;
27746;SDS011;15138;51.012;4.692;2023-06-05T03:18:01;7.25;;;2.40;;
27746;SDS011;15138;51.012;4.692;2023-06-05T03:20:30;7.80;;;3.00;;
27746;SDS011;15138;51.012;4.692;2023-06-05T03:22:59;4.43;;;2.78;;
27746;SDS011;15138;51.012;4.692;2023-06-05T03:25:27;5.07;;;2.20;;
27746;SDS011;15138;51.012;4.692;2023-06-05T03:27:56;5.88;;;2.28;;
27746;SDS011;15138;51.012;4.692;2023-06-05T03:30:24;5.10;;;2.55;;
27746;SDS011;15138;51.012;4.692;2023-06-05T03:32:52;8.30;;;2.85;;
27746;SDS011;15138;51.012;4.692;2023-06-05T03:35:21;7.22;;;3.00;;
27746;SDS011;15138;51.012;4.692;2023-06-05T03:37:50;6.35;;;2.75;;
27746;SDS011;15138;51.012;4.692;2023-06-05T03:40:19;6.28;;;2.95;;
27746;SDS011;15138;51.012;4.692;2023-06-05T03:42:47;9.20;;;3.35;;
27746;SDS011;15138;51.012;4.692;2023-06-05T03:45:16;5.85;;;2.65;;
27746;SDS011;15138;51.012;4.692;2023-06-05T03:47:44;6.78;;;3.38;;
27746;SDS011;15138;51.012;4.692;2023-06-05T03:50:15;6.57;;;2.65;;
27746;SDS011;15138;51.012;4.692;2023-06-05T03:52:43;5.13;;;2.58;;
27746;SDS011;15138;51.012;4.692;2023-06-05T03:55:20;8.15;;;3.33;;
27746;SDS011;15138;51.012;4.692;2023-06-05T03:57:49;6.80;;;2.88;;
27746;SDS011;15138;51.012;4.692;2023-06-05T04:00:17;8.65;;;3.10;;
27746;SDS011;15138;51.012;4.692;2023-06-05T04:02:46;7.47;;;2.45;;
27746;SDS011;15138;51.012;4.692;2023-06-05T04:05:14;5.03;;;2.35;;
27746;SDS011;15138;51.012;4.692;2023-06-05T04:07:43;8.70;;;3.40;;
27746;SDS011;15138;51.012;4.692;2023-06-05T04:10:11;5.15;;;2.33;;
27746;SDS011;15138;51.012;4.692;2023-06-05T04:12:41;6.78;;;3.50;;
27746;SDS011;15138;51.012;4.692;2023-06-05T04:15:09;5.80;;;2.95;;
27746;SDS011;15138;51.012;4.692;2023-06-05T04:17:38;5.53;;;3.42;;
27746;SDS011;15138;51.012;4.692;2023-06-05T04:20:07;6.28;;;3.13;;
27746;SDS011;15138;51.012;4.692;2023-06-05T04:22:40;4.45;;;2.42;;
27746;SDS011;15138;51.012;4.692;2023-06-05T04:25:09;5.65;;;2.58;;
27746;SDS011;15138;51.012;4.692;2023-06-05T04:27:39;6.28;;;2.92;;
27746;SDS011;15138;51.012;4.692;2023-06-05T04:30:10;6.78;;;2.97;;
27746;SDS011;15138;51.012;4.692;2023-06-05T04:32:40;7.00;;;2.83;;
27746;SDS011;15138;51.012;4.692;2023-06-05T04:35:09;6.72;;;3.13;;
27746;SDS011;15138;51.012;4.692;2023-06-05T04:37:38;6.47;;;3.05;;
27746;SDS011;15138;51.012;4.692;2023-06-05T04:40:07;7.03;;;3.00;;
27746;SDS011;15138;51.012;4.692;2023-06-05T04:42:36;3.75;;;2.83;;
27746;SDS011;15138;51.012;4.692;2023-06-05T04:45:07;5.57;;;2.83;;
27746;SDS011;15138;51.012;4.692;2023-06-05T04:47:35;8.25;;;4.40;;
27746;SDS011;15138;51.012;4.692;2023-06-05T04:50:04;5.45;;;3.08;;
27746;SDS011;15138;51.012;4.692;2023-06-05T04:52:34;11.07;;;3.55;;
27746;SDS011;15138;51.012;4.692;2023-06-05T04:55:07;9.20;;;3.35;;
27746;SDS011;15138;51.012;4.692;2023-06-05T04:57:35;8.52;;;3.20;;
27746;SDS011;15138;51.012;4.692;2023-06-05T05:00:04;7.22;;;3.53;;
27746;SDS011;15138;51.012;4.692;2023-06-05T05:02:36;6.47;;;3.15;;
27746;SDS011;15138;51.012;4.692;2023-06-05T05:05:05;6.47;;;3.70;;
27746;SDS011;15138;51.012;4.692;2023-06-05T05:07:34;7.47;;;3.40;;
27746;SDS011;15138;51.012;4.692;2023-06-05T05:10:03;6.97;;;3.22;;
27746;SDS011;15138;51.012;4.692;2023-06-05T05:12:32;10.48;;;3.67;;
27746;SDS011;15138;51.012;4.692;2023-06-05T05:15:01;10.27;;;3.88;;
27746;SDS011;15138;51.012;4.692;2023-06-05T05:17:31;9.38;;;3.40;;
27746;SDS011;15138;51.012;4.692;2023-06-05T05:20:00;7.85;;;3.17;;
27746;SDS011;15138;51.012;4.692;2023-06-05T05:22:30;10.02;;;4.53;;
27746;SDS011;15138;51.012;4.692;2023-06-05T05:24:58;17.25;;;5.57;;
27746;SDS011;15138;51.012;4.692;2023-06-05T05:27:27;9.68;;;3.47;;
27746;SDS011;15138;51.012;4.692;2023-06-05T05:29:55;10.10;;;3.55;;
27746;SDS011;15138;51.012;4.692;2023-06-05T05:32:23;11.40;;;4.07;;
27746;SDS011;15138;51.012;4.692;2023-06-05T05:34:53;11.05;;;4.43;;
27746;SDS011;15138;51.012;4.692;2023-06-05T05:37:21;8.13;;;3.47;;
27746;SDS011;15138;51.012;4.692;2023-06-05T05:39:52;8.65;;;4.15;;
27746;SDS011;15138;51.012;4.692;2023-06-05T05:42:20;9.40;;;5.15;;
27746;SDS011;15138;51.012;4.692;2023-06-05T05:44:48;6.35;;;3.55;;
27746;SDS011;15138;51.012;4.692;2023-06-05T05:47:17;12.05;;;5.88;;
27746;SDS011;15138;51.012;4.692;2023-06-05T05:49:45;8.45;;;4.32;;
27746;SDS011;15138;51.012;4.692;2023-06-05T05:52:15;9.82;;;3.75;;
27746;SDS011;15138;51.012;4.692;2023-06-05T05:54:48;8.43;;;4.63;;
27746;SDS011;15138;51.012;4.692;2023-06-05T05:57:17;10.40;;;4.57;;
27746;SDS011;15138;51.012;4.692;2023-06-05T05:59:45;8.50;;;4.72;;
27746;SDS011;15138;51.012;4.692;2023-06-05T06:02:13;11.95;;;6.05;;
27746;SDS011;15138;51.012;4.692;2023-06-05T06:04:43;8.43;;;4.32;;
27746;SDS011;15138;51.012;4.692;2023-06-05T06:07:12;5.80;;;4.60;;
27746;SDS011;15138;51.012;4.692;2023-06-05T06:09:42;7.13;;;5.03;;
27746;SDS011;15138;51.012;4.692;2023-06-05T06:12:11;8.32;;;5.25;;
27746;SDS011;15138;51.012;4.692;2023-06-05T06:14:40;7.63;;;5.03;;
27746;SDS011;15138;51.012;4.692;2023-06-05T06:17:08;11.82;;;5.65;;
27746;SDS011;15138;51.012;4.692;2023-06-05T06:19:37;7.20;;;4.78;;
27746;SDS011;15138;51.012;4.692;2023-06-05T06:22:07;8.82;;;4.63;;
27746;SDS011;15138;51.012;4.692;2023-06-05T06:24:38;10.05;;;5.03;;
27746;SDS011;15138;51.012;4.692;2023-06-05T06:27:08;13.57;;;6.35;;
27746;SDS011;15138;51.012;4.692;2023-06-05T06:29:46;9.52;;;5.90;;
27746;SDS011;15138;51.012;4.692;2023-06-05T06:32:16;8.37;;;4.27;;
27746;SDS011;15138;51.012;4.692;2023-06-05T06:34:44;9.50;;;4.75;;
27746;SDS011;15138;51.012;4.692;2023-06-05T06:37:13;12.45;;;7.00;;
27746;SDS011;15138;51.012;4.692;2023-06-05T06:39:42;9.88;;;5.00;;
27746;SDS011;15138;51.012;4.692;2023-06-05T06:42:12;11.32;;;5.80;;
27746;SDS011;15138;51.012;4.692;2023-06-05T06:44:41;11.48;;;6.55;;
27746;SDS011;15138;51.012;4.692;2023-06-05T06:47:10;12.07;;;6.85;;
27746;SDS011;15138;51.012;4.692;2023-06-05T06:49:38;12.63;;;7.72;;
27746;SDS011;15138;51.012;4.692;2023-06-05T06:52:07;9.77;;;5.55;;
27746;SDS011;15138;51.012;4.692;2023-06-05T06:54:36;10.88;;;6.65;;
27746;SDS011;15138;51.012;4.692;2023-06-05T06:57:05;13.40;;;5.72;;
27746;SDS011;15138;51.012;4.692;2023-06-05T06:59:35;13.68;;;7.18;;
27746;SDS011;15138;51.012;4.692;2023-06-05T07:02:10;12.02;;;6.13;;
27746;SDS011;15138;51.012;4.692;2023-06-05T07:04:40;12.52;;;7.43;;
27746;SDS011;15138;51.012;4.692;2023-06-05T07:07:10;17.17;;;5.80;;
27746;SDS011;15138;51.012;4.692;2023-06-05T07:09:40;8.70;;;6.55;;
27746;SDS011;15138;51.012;4.692;2023-06-05T07:12:10;12.93;;;6.70;;
27746;SDS011;15138;51.012;4.692;2023-06-05T07:14:42;16.10;;;7.82;;
27746;SDS011;15138;51.012;4.692;2023-06-05T07:17:11;11.23;;;5.60;;
27746;SDS011;15138;51.012;4.692;2023-06-05T07:19:39;9.43;;;4.95;;
27746;SDS011;15138;51.012;4.692;2023-06-05T07:22:08;8.65;;;4.30;;
27746;SDS011;15138;51.012;4.692;2023-06-05T07:24:36;8.77;;;5.45;;
27746;SDS011;15138;51.012;4.692;2023-06-05T07:27:06;12.45;;;5.85;;
27746;SDS011;15138;51.012;4.692;2023-06-05T07:29:36;11.35;;;4.72;;
27746;SDS011;15138;51.012;4.692;2023-06-05T07:32:05;10.80;;;6.60;;
27746;SDS011;15138;51.012;4.692;2023-06-05T07:34:34;9.30;;;6.70;;
27746;SDS011;15138;51.012;4.692;2023-06-05T07:37:02;13.02;;;7.22;;
27746;SDS011;15138;51.012;4.692;2023-06-05T07:39:31;10.77;;;7.60;;
27746;SDS011;15138;51.012;4.692;2023-06-05T07:41:59;8.05;;;4.85;;
27746;SDS011;15138;51.012;4.692;2023-06-05T07:44:27;11.65;;;5.95;;
27746;SDS011;15138;51.012;4.692;2023-06-05T07:46:56;14.55;;;6.95;;
27746;SDS011;15138;51.012;4.692;2023-06-05T07:49:29;12.40;;;6.60;;
27746;SDS011;15138;51.012;4.692;2023-06-05T07:51:58;11.35;;;5.75;;
27746;SDS011;15138;51.012;4.692;2023-06-05T07:54:26;11.20;;;6.20;;
27746;SDS011;15138;51.012;4.692;2023-06-05T07:56:54;11.25;;;6.50;;
27746;SDS011;15138;51.012;4.692;2023-06-05T07:59:24;11.65;;;5.03;;
27746;SDS011;15138;51.012;4.692;2023-06-05T08:01:54;8.65;;;4.72;;
27746;SDS011;15138;51.012;4.692;2023-06-05T08:04:23;8.23;;;5.60;;
27746;SDS011;15138;51.012;4.692;2023-06-05T08:06:55;7.97;;;5.22;;
27746;SDS011;15138;51.012;4.692;2023-06-05T08:09:24;11.77;;;4.93;;
27746;SDS011;15138;51.012;4.692;2023-06-05T08:11:52;11.80;;;5.95;;
27746;SDS011;15138;51.012;4.692;2023-06-05T08:14:22;9.95;;;5.65;;
27746;SDS011;15138;51.012;4.692;2023-06-05T08:16:50;12.10;;;6.10;;
27746;SDS011;15138;51.012;4.692;2023-06-05T08:19:19;8.60;;;5.28;;
27746;SDS011;15138;51.012;4.692;2023-06-05T08:21:49;8.65;;;5.13;;
27746;SDS011;15138;51.012;4.692;2023-06-05T08:24:21;8.23;;;6.50;;
27746;SDS011;15138;51.012;4.692;2023-06-05T08:26:50;12.82;;;6.85;;
27746;SDS011;15138;51.012;4.692;2023-06-05T08:29:19;14.20;;;7.30;;
27746;SDS011;15138;51.012;4.692;2023-06-05T08:31:47;9.40;;;4.95;;
27746;SDS011;15138;51.012;4.692;2023-06-05T08:34:16;10.85;;;6.03;;
27746;SDS011;15138;51.012;4.692;2023-06-05T08:36:44;9.88;;;6.15;;
27746;SDS011;15138;51.012;4.692;2023-06-05T08:39:13;10.13;;;5.22;;
27746;SDS011;15138;51.012;4.692;2023-06-05T08:41:43;13.88;;;6.88;;
27746;SDS011;15138;51.012;4.692;2023-06-05T08:44:12;7.47;;;5.05;;
27746;SDS011;15138;51.012;4.692;2023-06-05T08:46:40;9.23;;;5.10;;
27746;SDS011;15138;51.012;4.692;2023-06-05T08:49:10;9.63;;;6.22;;
27746;SDS011;15138;51.012;4.692;2023-06-05T08:51:39;11.20;;;5.85;;
27746;SDS011;15138;51.012;4.692;2023-06-05T08:54:08;10.35;;;6.25;;
27746;SDS011;15138;51.012;4.692;2023-06-05T08:56:40;10.88;;;4.47;;
27746;SDS011;15138;51.012;4.692;2023-06-05T08:59:11;13.07;;;6.65;;
27746;SDS011;15138;51.012;4.692;2023-06-05T09:01:41;11.32;;;5.20;;
27746;SDS011;15138;51.012;4.692;2023-06-05T09:04:11;14.85;;;6.70;;
27746;SDS011;15138;51.012;4.692;2023-06-05T09:06:39;11.27;;;4.95;;
27746;SDS011;15138;51.012;4.692;2023-06-05T09:09:08;11.38;;;4.68;;
27746;SDS011;15138;51.012;4.692;2023-06-05T09:11:37;11.55;;;5.63;;
27746;SDS011;15138;51.012;4.692;2023-06-05T09:14:06;8.68;;;5.10;;
27746;SDS011;15138;51.012;4.692;2023-06-05T09:16:36;11.10;;;6.40;;
27746;SDS011;15138;51.012;4.692;2023-06-05T09:19:05;8.07;;;5.13;;
27746;SDS011;15138;51.012;4.692;2023-06-05T09:21:35;10.10;;;4.75;;
27746;SDS011;15138;51.012;4.692;2023-06-05T09:24:10;10.80;;;6.40;;
27746;SDS011;15138;51.012;4.692;2023-06-05T09:26:50;8.93;;;4.47;;
27746;SDS011;15138;51.012;4.692;2023-06-05T09:29:24;20.67;;;7.38;;
27746;SDS011;15138;51.012;4.692;2023-06-05T09:31:56;10.20;;;4.18;;
27746;SDS011;15138;51.012;4.692;2023-06-05T09:34:26;10.48;;;5.40;;
27746;SDS011;15138;51.012;4.692;2023-06-05T09:36:56;7.13;;;4.25;;
27746;SDS011;15138;51.012;4.692;2023-06-05T09:39:25;11.07;;;5.43;;
27746;SDS011;15138;51.012;4.692;2023-06-05T09:41:54;13.02;;;4.82;;
27746;SDS011;15138;51.012;4.692;2023-06-05T09:44:23;9.82;;;4.97;;
27746;SDS011;15138;51.012;4.692;2023-06-05T09:46:53;10.95;;;4.72;;
27746;SDS011;15138;51.012;4.692;2023-06-05T09:49:26;9.18;;;4.55;;
27746;SDS011;15138;51.012;4.692;2023-06-05T09:51:55;11.63;;;5.28;;
27746;SDS011;15138;51.012;4.692;2023-06-05T09:54:25;10.38;;;4.57;;
27746;SDS011;15138;51.012;4.692;2023-06-05T09:56:58;10.13;;;6.32;;
27746;SDS011;15138;51.012;4.692;2023-06-05T09:59:28;7.68;;;4.68;;
27746;SDS011;15138;51.012;4.692;2023-06-05T10:02:03;8.00;;;4.53;;
27746;SDS011;15138;51.012;4.692;2023-06-05T10:04:32;9.48;;;5.50;;
27746;SDS011;15138;51.012;4.692;2023-06-05T10:07:08;11.15;;;5.35;;
27746;SDS011;15138;51.012;4.692;2023-06-05T10:09:36;7.13;;;3.40;;
27746;SDS011;15138;51.012;4.692;2023-06-05T10:12:06;11.20;;;4.20;;
27746;SDS011;15138;51.012;4.692;2023-06-05T10:14:35;11.27;;;5.53;;
27746;SDS011;15138;51.012;4.692;2023-06-05T10:17:09;10.38;;;4.10;;
27746;SDS011;15138;51.012;4.692;2023-06-05T10:19:41;9.57;;;4.68;;
27746;SDS011;15138;51.012;4.692;2023-06-05T10:22:10;13.05;;;4.57;;
27746;SDS011;15138;51.012;4.692;2023-06-05T10:24:41;6.97;;;3.42;;
27746;SDS011;15138;51.012;4.692;2023-06-05T10:30:12;11.90;;;4.60;;
27746;SDS011;15138;51.012;4.692;2023-06-05T10:32:47;9.50;;;4.38;;
27746;SDS011;15138;51.012;4.692;2023-06-05T10:35:24;5.50;;;3.13;;
27746;SDS011;15138;51.012;4.692;2023-06-05T10:38:00;8.27;;;4.28;;
27746;SDS011;15138;51.012;4.692;2023-06-05T10:40:31;9.18;;;3.83;;
27746;SDS011;15138;51.012;4.692;2023-06-05T10:45:44;7.05;;;3.47;;
27746;SDS011;15138;51.012;4.692;2023-06-05T10:51:34;8.13;;;4.00;;
27746;SDS011;15138;51.012;4.692;2023-06-05T10:54:04;8.70;;;3.55;;
27746;SDS011;15138;51.012;4.692;2023-06-05T10:56:55;9.52;;;4.20;;
27746;SDS011;15138;51.012;4.692;2023-06-05T10:59:26;6.70;;;3.13;;
27746;SDS011;15138;51.012;4.692;2023-06-05T11:05:03;6.90;;;4.63;;
27746;SDS011;15138;51.012;4.692;2023-06-05T11:07:34;9.10;;;3.90;;
27746;SDS011;15138;51.012;4.692;2023-06-05T11:10:04;10.18;;;4.35;;
27746;SDS011;15138;51.012;4.692;2023-06-05T11:15:33;12.82;;;4.60;;
27746;SDS011;15138;51.012;4.692;2023-06-05T11:20:49;8.40;;;3.22;;
27746;SDS011;15138;51.012;4.692;2023-06-05T11:23:19;11.07;;;3.67;;
27746;SDS011;15138;51.012;4.692;2023-06-05T11:25:48;7.82;;;3.33;;
27746;SDS011;15138;51.012;4.692;2023-06-05T11:31:01;7.18;;;3.90;;
27746;SDS011;15138;51.012;4.692;2023-06-05T11:33:30;7.07;;;3.17;;
27746;SDS011;15138;51.012;4.692;2023-06-05T11:36:00;6.07;;;3.75;;
27746;SDS011;15138;51.012;4.692;2023-06-05T11:38:30;9.70;;;4.05;;
27746;SDS011;15138;51.012;4.692;2023-06-05T11:40:59;14.70;;;3.97;;
27746;SDS011;15138;51.012;4.692;2023-06-05T11:43:27;7.45;;;2.85;;
27746;SDS011;15138;51.012;4.692;2023-06-05T11:45:57;10.63;;;3.00;;
27746;SDS011;15138;51.012;4.692;2023-06-05T11:48:26;7.22;;;3.10;;
27746;SDS011;15138;51.012;4.692;2023-06-05T11:50:56;9.18;;;3.83;;
27746;SDS011;15138;51.012;4.692;2023-06-05T11:53:25;7.85;;;2.15;;
27746;SDS011;15138;51.012;4.692;2023-06-05T11:55:55;4.50;;;2.67;;
27746;SDS011;15138;51.012;4.692;2023-06-05T11:58:37;5.57;;;2.42;;
27746;SDS011;15138;51.012;4.692;2023-06-05T12:01:07;7.45;;;2.65;;
27746;SDS011;15138;51.012;4.692;2023-06-05T12:03:39;4.05;;;2.53;;
27746;SDS011;15138;51.012;4.692;2023-06-05T12:06:08;6.97;;;2.67;;
27746;SDS011;15138;51.012;4.692;2023-06-05T12:08:38;7.85;;;3.10;;
27746;SDS011;15138;51.012;4.692;2023-06-05T12:11:22;12.57;;;3.53;;
27746;SDS011;15138;51.012;4.692;2023-06-05T12:13:52;7.40;;;2.78;;
27746;SDS011;15138;51.012;4.692;2023-06-05T12:16:29;6.38;;;2.40;;
27746;SDS011;15138;51.012;4.692;2023-06-05T12:18:59;4.22;;;2.10;;
27746;SDS011;15138;51.012;4.692;2023-06-05T12:21:41;9.23;;;2.83;;
27746;SDS011;15138;51.012;4.692;2023-06-05T12:24:10;3.90;;;2.70;;
27746;SDS011;15138;51.012;4.692;2023-06-05T12:26:50;5.05;;;2.72;;
27746;SDS011;15138;51.012;4.692;2023-06-05T12:29:21;4.60;;;2.60;;
27746;SDS011;15138;51.012;4.692;2023-06-05T12:31:51;6.93;;;2.53;;
27746;SDS011;15138;51.012;4.692;2023-06-05T12:37:10;13.52;;;3.00;;
27746;SDS011;15138;51.012;4.692;2023-06-05T12:39:39;7.63;;;3.25;;
27746;SDS011;15138;51.012;4.692;2023-06-05T12:42:09;4.13;;;2.50;;
27746;SDS011;15138;51.012;4.692;2023-06-05T12:44:37;5.78;;;2.30;;
27746;SDS011;15138;51.012;4.692;2023-06-05T12:47:05;3.95;;;2.75;;
27746;SDS011;15138;51.012;4.692;2023-06-05T12:49:40;9.27;;;2.30;;
27746;SDS011;15138;51.012;4.692;2023-06-05T12:52:08;5.53;;;2.97;;
27746;SDS011;15138;51.012;4.692;2023-06-05T12:54:37;4.65;;;1.77;;
27746;SDS011;15138;51.012;4.692;2023-06-05T12:57:05;7.97;;;2.40;;
27746;SDS011;15138;51.012;4.692;2023-06-05T12:59:39;6.10;;;2.60;;
27746;SDS011;15138;51.012;4.692;2023-06-05T13:02:07;4.45;;;2.45;;
27746;SDS011;15138;51.012;4.692;2023-06-05T13:04:36;5.68;;;2.70;;
27746;SDS011;15138;51.012;4.692;2023-06-05T13:07:06;7.47;;;2.72;;
27746;SDS011;15138;51.012;4.692;2023-06-05T13:09:35;8.00;;;2.45;;
27746;SDS011;15138;51.012;4.692;2023-06-05T13:12:03;5.30;;;2.10;;
27746;SDS011;15138;51.012;4.692;2023-06-05T13:14:32;6.10;;;2.60;;
27746;SDS011;15138;51.012;4.692;2023-06-05T13:17:02;6.07;;;1.88;;
27746;SDS011;15138;51.012;4.692;2023-06-05T13:19:30;7.28;;;2.20;;
27746;SDS011;15138;51.012;4.692;2023-06-05T13:21:59;5.10;;;2.42;;
27746;SDS011;15138;51.012;4.692;2023-06-05T13:24:28;6.78;;;2.50;;
27746;SDS011;15138;51.012;4.692;2023-06-05T13:26:56;5.43;;;2.35;;
27746;SDS011;15138;51.012;4.692;2023-06-05T13:29:24;5.30;;;2.63;;
27746;SDS011;15138;51.012;4.692;2023-06-05T13:31:53;8.70;;;3.08;;
27746;SDS011;15138;51.012;4.692;2023-06-05T13:34:23;6.88;;;3.00;;
27746;SDS011;15138;51.012;4.692;2023-06-05T13:36:51;6.95;;;2.00;;
27746;SDS011;15138;51.012;4.692;2023-06-05T13:39:27;5.18;;;2.65;;
27746;SDS011;15138;51.012;4.692;2023-06-05T13:41:56;6.68;;;2.45;;
27746;SDS011;15138;51.012;4.692;2023-06-05T13:44:24;4.40;;;1.70;;
27746;SDS011;15138;51.012;4.692;2023-06-05T13:46:52;4.20;;;2.30;;
27746;SDS011;15138;51.012;4.692;2023-06-05T13:49:23;6.68;;;2.28;;
27746;SDS011;15138;51.012;4.692;2023-06-05T13:51:52;4.43;;;2.05;;
27746;SDS011;15138;51.012;4.692;2023-06-05T13:54:20;4.40;;;2.10;;
27746;SDS011;15138;51.012;4.692;2023-06-05T13:56:48;4.28;;;2.10;;
27746;SDS011;15138;51.012;4.692;2023-06-05T13:59:18;5.47;;;2.20;;
27746;SDS011;15138;51.012;4.692;2023-06-05T14:01:46;7.30;;;2.40;;
27746;SDS011;15138;51.012;4.692;2023-06-05T14:04:15;7.68;;;2.33;;
27746;SDS011;15138;51.012;4.692;2023-06-05T14:06:45;7.90;;;2.20;;
27746;SDS011;15138;51.012;4.692;2023-06-05T14:09:13;5.30;;;2.70;;
27746;SDS011;15138;51.012;4.692;2023-06-05T14:11:41;4.05;;;2.10;;
27746;SDS011;15138;51.012;4.692;2023-06-05T14:14:11;9.18;;;2.10;;
27746;SDS011;15138;51.012;4.692;2023-06-05T14:16:39;7.47;;;2.30;;
27746;SDS011;15138;51.012;4.692;2023-06-05T14:19:08;4.53;;;2.38;;
27746;SDS011;15138;51.012;4.692;2023-06-05T14:21:36;5.75;;;2.70;;
27746;SDS011;15138;51.012;4.692;2023-06-05T14:24:07;7.63;;;2.50;;
27746;SDS011;15138;51.012;4.692;2023-06-05T14:26:36;8.13;;;2.50;;
27746;SDS011;15138;51.012;4.692;2023-06-05T14:29:05;5.90;;;2.08;;
27746;SDS011;15138;51.012;4.692;2023-06-05T14:31:33;7.55;;;2.40;;
27746;SDS011;15138;51.012;4.692;2023-06-05T14:34:01;7.90;;;2.40;;
27746;SDS011;15138;51.012;4.692;2023-06-05T14:36:30;6.50;;;2.63;;
27746;SDS011;15138;51.012;4.692;2023-06-05T14:38:58;6.78;;;2.00;;
27746;SDS011;15138;51.012;4.692;2023-06-05T14:41:28;9.70;;;2.45;;
27746;SDS011;15138;51.012;4.692;2023-06-05T14:43:57;6.25;;;2.20;;
27746;SDS011;15138;51.012;4.692;2023-06-05T14:46:45;6.18;;;2.10;;
27746;SDS011;15138;51.012;4.692;2023-06-05T14:49:14;5.57;;;2.50;;
27746;SDS011;15138;51.012;4.692;2023-06-05T14:51:42;8.50;;;2.45;;
27746;SDS011;15138;51.012;4.692;2023-06-05T14:54:10;3.88;;;2.00;;
27746;SDS011;15138;51.012;4.692;2023-06-05T14:56:41;6.05;;;2.20;;
27746;SDS011;15138;51.012;4.692;2023-06-05T14:59:09;3.83;;;2.25;;
27746;SDS011;15138;51.012;4.692;2023-06-05T15:01:52;6.32;;;2.10;;
27746;SDS011;15138;51.012;4.692;2023-06-05T15:04:21;4.80;;;2.03;;
27746;SDS011;15138;51.012;4.692;2023-06-05T15:06:49;5.40;;;2.25;;
27746;SDS011;15138;51.012;4.692;2023-06-05T15:09:20;5.18;;;2.30;;
27746;SDS011;15138;51.012;4.692;2023-06-05T15:11:50;10.65;;;2.83;;
27746;SDS011;15138;51.012;4.692;2023-06-05T15:14:19;10.50;;;2.90;;
27746;SDS011;15138;51.012;4.692;2023-06-05T15:16:47;6.18;;;2.50;;
27746;SDS011;15138;51.012;4.692;2023-06-05T15:19:16;7.07;;;2.83;;
27746;SDS011;15138;51.012;4.692;2023-06-05T15:21:44;9.20;;;2.70;;
27746;SDS011;15138;51.012;4.692;2023-06-05T15:24:13;4.28;;;2.20;;